sensor_id;sensor_type;location;lat;lon;timestamp;P1;durP1;ratioP1;P2;durP2;ratioP2
22078;SDS011;11206;57.696;11.944;2022-10-31T00:01:21;23.05;;;6.63;;
22078;SDS011;11206;57.696;11.944;2022-10-31T00:03:47;22.00;;;7.55;;
22078;SDS011;11206;57.696;11.944;2022-10-31T00:06:15;24.52;;;7.88;;
22078;SDS011;11206;57.696;11.944;2022-10-31T00:08:45;27.23;;;8.02;;
22078;SDS011;11206;57.696;11.944;2022-10-31T00:11:11;34.50;;;8.52;;
22078;SDS011;11206;57.696;11.944;2022-10-31T00:13:38;26.25;;;7.53;;
22078;SDS011;11206;57.696;11.944;2022-10-31T00:16:04;31.40;;;7.40;;
22078;SDS011;11206;57.696;11.944;2022-10-31T00:18:30;37.13;;;8.02;;
22078;SDS011;11206;57.696;11.944;2022-10-31T00:21:00;21.95;;;6.45;;
22078;SDS011;11206;57.696;11.944;2022-10-31T00:23:26;26.83;;;7.75;;
22078;SDS011;11206;57.696;11.944;2022-10-31T00:25:52;24.23;;;6.85;;
22078;SDS011;11206;57.696;11.944;2022-10-31T00:28:18;28.98;;;7.57;;
22078;SDS011;11206;57.696;11.944;2022-10-31T03:19:40;28.45;;;7.65;;
22078;SDS011;11206;57.696;11.944;2022-10-31T03:22:10;27.73;;;8.15;;
22078;SDS011;11206;57.696;11.944;2022-10-31T03:24:38;31.25;;;7.03;;
22078;SDS011;11206;57.696;11.944;2022-10-31T03:27:05;22.55;;;7.82;;
22078;SDS011;11206;57.696;11.944;2022-10-31T03:29:34;22.88;;;7.70;;
22078;SDS011;11206;57.696;11.944;2022-10-31T03:32:08;32.95;;;9.52;;
22078;SDS011;11206;57.696;11.944;2022-10-31T03:34:36;31.42;;;9.35;;
22078;SDS011;11206;57.696;11.944;2022-10-31T03:37:04;28.85;;;8.38;;
22078;SDS011;11206;57.696;11.944;2022-10-31T03:39:30;37.22;;;9.15;;
22078;SDS011;11206;57.696;11.944;2022-10-31T03:41:59;37.78;;;8.85;;
22078;SDS011;11206;57.696;11.944;2022-10-31T03:44:27;23.98;;;7.10;;
22078;SDS011;11206;57.696;11.944;2022-10-31T03:46:55;27.00;;;8.00;;
22078;SDS011;11206;57.696;11.944;2022-10-31T03:49:21;32.13;;;7.93;;
22078;SDS011;11206;57.696;11.944;2022-10-31T03:51:50;23.40;;;8.13;;
22078;SDS011;11206;57.696;11.944;2022-10-31T03:54:25;25.50;;;7.70;;
22078;SDS011;11206;57.696;11.944;2022-10-31T03:56:53;21.88;;;6.63;;
22078;SDS011;11206;57.696;11.944;2022-10-31T03:59:23;31.00;;;8.32;;
22078;SDS011;11206;57.696;11.944;2022-10-31T04:01:51;24.08;;;7.35;;
22078;SDS011;11206;57.696;11.944;2022-10-31T04:04:18;30.98;;;7.68;;
22078;SDS011;11206;57.696;11.944;2022-10-31T04:06:45;25.70;;;7.35;;
22078;SDS011;11206;57.696;11.944;2022-10-31T04:09:11;35.60;;;7.45;;
22078;SDS011;11206;57.696;11.944;2022-10-31T04:11:40;32.22;;;7.63;;
22078;SDS011;11206;57.696;11.944;2022-10-31T04:14:08;25.00;;;8.02;;
22078;SDS011;11206;57.696;11.944;2022-10-31T04:16:35;19.23;;;6.18;;
22078;SDS011;11206;57.696;11.944;2022-10-31T04:19:01;30.05;;;7.03;;
22078;SDS011;11206;57.696;11.944;2022-10-31T04:21:27;25.35;;;7.53;;
22078;SDS011;11206;57.696;11.944;2022-10-31T04:23:54;34.83;;;7.68;;
22078;SDS011;11206;57.696;11.944;2022-10-31T04:26:20;27.50;;;7.47;;
22078;SDS011;11206;57.696;11.944;2022-10-31T04:28:46;31.90;;;8.25;;
22078;SDS011;11206;57.696;11.944;2022-10-31T04:31:13;22.65;;;6.80;;
22078;SDS011;11206;57.696;11.944;2022-10-31T04:33:39;25.08;;;6.60;;
22078;SDS011;11206;57.696;11.944;2022-10-31T04:36:05;25.73;;;7.65;;
22078;SDS011;11206;57.696;11.944;2022-10-31T04:38:31;23.23;;;6.93;;
22078;SDS011;11206;57.696;11.944;2022-10-31T04:40:57;25.60;;;7.72;;
22078;SDS011;11206;57.696;11.944;2022-10-31T04:43:24;22.92;;;6.75;;
22078;SDS011;11206;57.696;11.944;2022-10-31T04:45:50;28.58;;;7.63;;
22078;SDS011;11206;57.696;11.944;2022-10-31T04:48:16;25.48;;;7.35;;
22078;SDS011;11206;57.696;11.944;2022-10-31T04:50:42;29.65;;;7.97;;
22078;SDS011;11206;57.696;11.944;2022-10-31T04:53:08;30.48;;;7.95;;
22078;SDS011;11206;57.696;11.944;2022-10-31T04:55:35;35.67;;;7.45;;
22078;SDS011;11206;57.696;11.944;2022-10-31T04:58:01;21.85;;;7.22;;
22078;SDS011;11206;57.696;11.944;2022-10-31T05:00:28;30.33;;;5.88;;
22078;SDS011;11206;57.696;11.944;2022-10-31T05:02:55;22.88;;;6.60;;
22078;SDS011;11206;57.696;11.944;2022-10-31T05:05:22;27.67;;;6.97;;
22078;SDS011;11206;57.696;11.944;2022-10-31T05:07:49;22.02;;;5.80;;
22078;SDS011;11206;57.696;11.944;2022-10-31T05:10:16;27.42;;;6.53;;
22078;SDS011;11206;57.696;11.944;2022-10-31T05:12:56;21.27;;;5.93;;
22078;SDS011;11206;57.696;11.944;2022-10-31T05:15:23;22.77;;;7.18;;
22078;SDS011;11206;57.696;11.944;2022-10-31T05:17:50;22.00;;;6.00;;
22078;SDS011;11206;57.696;11.944;2022-10-31T05:20:17;28.35;;;6.78;;
22078;SDS011;11206;57.696;11.944;2022-10-31T05:22:47;22.13;;;6.85;;
22078;SDS011;11206;57.696;11.944;2022-10-31T05:25:14;23.50;;;6.82;;
22078;SDS011;11206;57.696;11.944;2022-10-31T05:27:43;19.27;;;5.97;;
22078;SDS011;11206;57.696;11.944;2022-10-31T05:30:11;23.35;;;6.03;;
22078;SDS011;11206;57.696;11.944;2022-10-31T05:32:46;17.00;;;5.00;;
22078;SDS011;11206;57.696;11.944;2022-10-31T05:35:14;23.33;;;6.57;;
22078;SDS011;11206;57.696;11.944;2022-10-31T05:37:40;19.65;;;6.20;;
22078;SDS011;11206;57.696;11.944;2022-10-31T05:40:07;31.10;;;6.97;;
22078;SDS011;11206;57.696;11.944;2022-10-31T05:42:33;20.02;;;6.50;;
22078;SDS011;11206;57.696;11.944;2022-10-31T05:45:00;18.65;;;5.03;;
22078;SDS011;11206;57.696;11.944;2022-10-31T05:47:26;16.10;;;5.13;;
22078;SDS011;11206;57.696;11.944;2022-10-31T05:49:52;24.58;;;6.15;;
22078;SDS011;11206;57.696;11.944;2022-10-31T05:52:18;19.05;;;5.75;;
22078;SDS011;11206;57.696;11.944;2022-10-31T05:54:44;19.00;;;5.50;;
22078;SDS011;11206;57.696;11.944;2022-10-31T05:57:10;12.75;;;5.32;;
22078;SDS011;11206;57.696;11.944;2022-10-31T05:59:37;23.08;;;5.43;;
22078;SDS011;11206;57.696;11.944;2022-10-31T06:02:03;21.17;;;5.22;;
22078;SDS011;11206;57.696;11.944;2022-10-31T06:04:31;23.95;;;5.57;;
22078;SDS011;11206;57.696;11.944;2022-10-31T06:06:57;20.30;;;4.93;;
22078;SDS011;11206;57.696;11.944;2022-10-31T06:09:23;15.07;;;5.20;;
22078;SDS011;11206;57.696;11.944;2022-10-31T06:11:50;15.70;;;4.82;;
22078;SDS011;11206;57.696;11.944;2022-10-31T06:14:16;20.40;;;5.13;;
22078;SDS011;11206;57.696;11.944;2022-10-31T06:16:42;23.80;;;5.80;;
22078;SDS011;11206;57.696;11.944;2022-10-31T06:19:08;19.17;;;4.88;;
22078;SDS011;11206;57.696;11.944;2022-10-31T06:21:34;16.27;;;4.32;;
22078;SDS011;11206;57.696;11.944;2022-10-31T06:24:00;18.70;;;4.22;;
22078;SDS011;11206;57.696;11.944;2022-10-31T06:26:26;10.48;;;4.15;;
22078;SDS011;11206;57.696;11.944;2022-10-31T06:28:52;18.33;;;4.28;;
22078;SDS011;11206;57.696;11.944;2022-10-31T06:31:19;14.00;;;4.50;;
22078;SDS011;11206;57.696;11.944;2022-10-31T06:33:45;25.42;;;5.70;;
22078;SDS011;11206;57.696;11.944;2022-10-31T06:36:11;14.93;;;4.07;;
22078;SDS011;11206;57.696;11.944;2022-10-31T06:38:37;15.40;;;4.95;;
22078;SDS011;11206;57.696;11.944;2022-10-31T06:41:03;26.42;;;5.05;;
22078;SDS011;11206;57.696;11.944;2022-10-31T06:43:29;16.48;;;4.43;;
22078;SDS011;11206;57.696;11.944;2022-10-31T06:45:56;20.42;;;5.13;;
22078;SDS011;11206;57.696;11.944;2022-10-31T06:48:22;14.60;;;4.38;;
22078;SDS011;11206;57.696;11.944;2022-10-31T06:50:48;13.07;;;4.88;;
22078;SDS011;11206;57.696;11.944;2022-10-31T06:53:14;17.63;;;5.00;;
22078;SDS011;11206;57.696;11.944;2022-10-31T06:55:41;18.02;;;5.15;;
22078;SDS011;11206;57.696;11.944;2022-10-31T06:58:08;21.13;;;5.43;;
22078;SDS011;11206;57.696;11.944;2022-10-31T07:00:34;17.88;;;5.35;;
22078;SDS011;11206;57.696;11.944;2022-10-31T07:03:02;16.52;;;5.20;;
22078;SDS011;11206;57.696;11.944;2022-10-31T07:05:28;22.10;;;6.15;;
22078;SDS011;11206;57.696;11.944;2022-10-31T07:07:55;13.93;;;5.30;;
22078;SDS011;11206;57.696;11.944;2022-10-31T07:10:23;14.40;;;4.93;;
22078;SDS011;11206;57.696;11.944;2022-10-31T07:12:59;17.98;;;4.75;;
22078;SDS011;11206;57.696;11.944;2022-10-31T07:15:26;14.55;;;4.47;;
22078;SDS011;11206;57.696;11.944;2022-10-31T07:17:53;13.35;;;4.90;;
22078;SDS011;11206;57.696;11.944;2022-10-31T07:20:19;14.35;;;4.47;;
22078;SDS011;11206;57.696;11.944;2022-10-31T07:22:45;17.05;;;4.53;;
22078;SDS011;11206;57.696;11.944;2022-10-31T07:25:11;16.60;;;4.63;;
22078;SDS011;11206;57.696;11.944;2022-10-31T07:27:38;17.83;;;5.13;;
22078;SDS011;11206;57.696;11.944;2022-10-31T07:30:04;15.43;;;4.45;;
22078;SDS011;11206;57.696;11.944;2022-10-31T07:32:41;15.13;;;4.82;;
22078;SDS011;11206;57.696;11.944;2022-10-31T07:35:10;13.05;;;3.90;;
22078;SDS011;11206;57.696;11.944;2022-10-31T07:37:36;18.05;;;5.40;;
22078;SDS011;11206;57.696;11.944;2022-10-31T07:40:03;24.50;;;5.75;;
22078;SDS011;11206;57.696;11.944;2022-10-31T07:42:34;23.45;;;5.18;;
22078;SDS011;11206;57.696;11.944;2022-10-31T07:45:00;25.88;;;5.65;;
22078;SDS011;11206;57.696;11.944;2022-10-31T07:47:27;22.20;;;5.18;;
22078;SDS011;11206;57.696;11.944;2022-10-31T07:49:53;21.50;;;5.53;;
22078;SDS011;11206;57.696;11.944;2022-10-31T07:52:19;22.88;;;4.78;;
22078;SDS011;11206;57.696;11.944;2022-10-31T07:54:45;17.70;;;4.97;;
22078;SDS011;11206;57.696;11.944;2022-10-31T07:57:11;18.85;;;5.05;;
22078;SDS011;11206;57.696;11.944;2022-10-31T07:59:37;16.85;;;4.28;;
22078;SDS011;11206;57.696;11.944;2022-10-31T08:02:03;12.75;;;3.70;;
22078;SDS011;11206;57.696;11.944;2022-10-31T08:04:29;18.75;;;4.97;;
22078;SDS011;11206;57.696;11.944;2022-10-31T08:06:55;15.98;;;4.75;;
22078;SDS011;11206;57.696;11.944;2022-10-31T08:09:21;17.75;;;4.43;;
22078;SDS011;11206;57.696;11.944;2022-10-31T08:11:47;14.15;;;4.40;;
22078;SDS011;11206;57.696;11.944;2022-10-31T08:14:15;12.85;;;4.40;;
22078;SDS011;11206;57.696;11.944;2022-10-31T08:16:41;15.68;;;4.60;;
22078;SDS011;11206;57.696;11.944;2022-10-31T08:19:08;17.58;;;4.85;;
22078;SDS011;11206;57.696;11.944;2022-10-31T08:21:34;14.77;;;5.10;;
22078;SDS011;11206;57.696;11.944;2022-10-31T08:24:00;15.40;;;5.55;;
22078;SDS011;11206;57.696;11.944;2022-10-31T08:26:26;18.33;;;4.80;;
22078;SDS011;11206;57.696;11.944;2022-10-31T08:28:52;18.08;;;5.18;;
22078;SDS011;11206;57.696;11.944;2022-10-31T08:31:19;14.80;;;5.57;;
22078;SDS011;11206;57.696;11.944;2022-10-31T08:33:45;13.82;;;5.03;;
22078;SDS011;11206;57.696;11.944;2022-10-31T08:36:11;18.50;;;5.75;;
22078;SDS011;11206;57.696;11.944;2022-10-31T08:38:38;17.00;;;5.90;;
22078;SDS011;11206;57.696;11.944;2022-10-31T08:41:04;13.35;;;5.00;;
22078;SDS011;11206;57.696;11.944;2022-10-31T08:43:30;11.60;;;3.90;;
22078;SDS011;11206;57.696;11.944;2022-10-31T08:45:56;18.02;;;5.07;;
22078;SDS011;11206;57.696;11.944;2022-10-31T08:48:22;12.63;;;4.13;;
22078;SDS011;11206;57.696;11.944;2022-10-31T08:50:48;14.05;;;4.00;;
22078;SDS011;11206;57.696;11.944;2022-10-31T08:53:15;14.75;;;4.57;;
22078;SDS011;11206;57.696;11.944;2022-10-31T08:55:42;12.35;;;3.70;;
22078;SDS011;11206;57.696;11.944;2022-10-31T08:58:12;13.63;;;3.65;;
22078;SDS011;11206;57.696;11.944;2022-10-31T09:00:39;16.73;;;5.38;;
22078;SDS011;11206;57.696;11.944;2022-10-31T09:03:11;13.02;;;4.00;;
22078;SDS011;11206;57.696;11.944;2022-10-31T09:05:37;13.48;;;4.00;;
22078;SDS011;11206;57.696;11.944;2022-10-31T09:08:04;15.80;;;4.20;;
22078;SDS011;11206;57.696;11.944;2022-10-31T09:10:31;15.93;;;4.68;;
22078;SDS011;11206;57.696;11.944;2022-10-31T09:12:57;12.73;;;4.88;;
22078;SDS011;11206;57.696;11.944;2022-10-31T09:15:24;22.30;;;4.78;;
22078;SDS011;11206;57.696;11.944;2022-10-31T09:17:51;27.05;;;4.80;;
22078;SDS011;11206;57.696;11.944;2022-10-31T09:20:17;11.25;;;3.85;;
22078;SDS011;11206;57.696;11.944;2022-10-31T09:22:43;19.00;;;4.40;;
22078;SDS011;11206;57.696;11.944;2022-10-31T09:25:09;16.10;;;4.32;;
22078;SDS011;11206;57.696;11.944;2022-10-31T09:27:36;11.23;;;3.58;;
22078;SDS011;11206;57.696;11.944;2022-10-31T09:30:02;12.75;;;3.67;;
22078;SDS011;11206;57.696;11.944;2022-10-31T09:32:28;11.95;;;3.50;;
22078;SDS011;11206;57.696;11.944;2022-10-31T09:34:55;19.77;;;3.40;;
22078;SDS011;11206;57.696;11.944;2022-10-31T09:37:21;12.73;;;3.60;;
22078;SDS011;11206;57.696;11.944;2022-10-31T09:39:47;14.45;;;4.03;;
22078;SDS011;11206;57.696;11.944;2022-10-31T09:42:22;10.50;;;4.03;;
22078;SDS011;11206;57.696;11.944;2022-10-31T09:44:51;9.60;;;3.70;;
22078;SDS011;11206;57.696;11.944;2022-10-31T09:52:29;12.80;;;3.60;;
22078;SDS011;11206;57.696;11.944;2022-10-31T09:55:30;16.73;;;3.50;;
22078;SDS011;11206;57.696;11.944;2022-10-31T09:57:45;14.63;;;3.42;;
22078;SDS011;11206;57.696;11.944;2022-10-31T10:00:15;14.40;;;4.32;;
22078;SDS011;11206;57.696;11.944;2022-10-31T10:02:50;17.23;;;4.03;;
22078;SDS011;11206;57.696;11.944;2022-10-31T10:05:22;14.48;;;4.32;;
22078;SDS011;11206;57.696;11.944;2022-10-31T10:18:15;16.55;;;3.25;;
22078;SDS011;11206;57.696;11.944;2022-10-31T10:20:49;16.42;;;3.55;;
22078;SDS011;11206;57.696;11.944;2022-10-31T10:25:45;11.98;;;3.50;;
22078;SDS011;11206;57.696;11.944;2022-10-31T10:28:17;9.15;;;2.78;;
22078;SDS011;11206;57.696;11.944;2022-10-31T10:30:57;12.95;;;3.17;;
22078;SDS011;11206;57.696;11.944;2022-10-31T10:36:03;18.08;;;3.42;;
22078;SDS011;11206;57.696;11.944;2022-10-31T10:41:03;12.02;;;2.80;;
22078;SDS011;11206;57.696;11.944;2022-10-31T10:43:35;13.93;;;3.40;;
22078;SDS011;11206;57.696;11.944;2022-10-31T10:46:08;11.27;;;2.55;;
22078;SDS011;11206;57.696;11.944;2022-10-31T10:51:37;11.15;;;1.75;;
22078;SDS011;11206;57.696;11.944;2022-10-31T10:59:06;17.77;;;2.28;;
22078;SDS011;11206;57.696;11.944;2022-10-31T11:01:34;8.88;;;1.95;;
22078;SDS011;11206;57.696;11.944;2022-10-31T11:04:01;10.68;;;1.65;;
22078;SDS011;11206;57.696;11.944;2022-10-31T11:06:28;9.00;;;2.10;;
22078;SDS011;11206;57.696;11.944;2022-10-31T11:08:54;7.13;;;1.23;;
22078;SDS011;11206;57.696;11.944;2022-10-31T11:11:29;8.68;;;1.83;;
22078;SDS011;11206;57.696;11.944;2022-10-31T11:14:03;6.47;;;1.50;;
22078;SDS011;11206;57.696;11.944;2022-10-31T11:16:31;11.35;;;1.33;;
22078;SDS011;11206;57.696;11.944;2022-10-31T11:21:33;17.40;;;1.75;;
22078;SDS011;11206;57.696;11.944;2022-10-31T11:26:35;6.90;;;1.60;;
22078;SDS011;11206;57.696;11.944;2022-10-31T11:29:03;9.63;;;2.00;;
22078;SDS011;11206;57.696;11.944;2022-10-31T11:31:30;5.57;;;1.13;;
22078;SDS011;11206;57.696;11.944;2022-10-31T11:34:02;9.43;;;1.25;;
22078;SDS011;11206;57.696;11.944;2022-10-31T11:36:38;1.67;;;0.52;;
22078;SDS011;11206;57.696;11.944;2022-10-31T11:39:05;3.83;;;0.80;;
22078;SDS011;11206;57.696;11.944;2022-10-31T11:41:38;5.15;;;1.20;;
22078;SDS011;11206;57.696;11.944;2022-10-31T11:44:13;8.40;;;1.30;;
22078;SDS011;11206;57.696;11.944;2022-10-31T11:46:41;5.03;;;1.10;;
22078;SDS011;11206;57.696;11.944;2022-10-31T11:49:28;5.95;;;1.15;;
22078;SDS011;11206;57.696;11.944;2022-10-31T11:51:56;11.60;;;1.30;;
22078;SDS011;11206;57.696;11.944;2022-10-31T11:54:30;7.53;;;1.30;;
22078;SDS011;11206;57.696;11.944;2022-10-31T11:56:57;3.20;;;0.90;;
22078;SDS011;11206;57.696;11.944;2022-10-31T11:59:27;3.45;;;1.15;;
22078;SDS011;11206;57.696;11.944;2022-10-31T12:01:55;8.57;;;1.00;;
22078;SDS011;11206;57.696;11.944;2022-10-31T12:07:26;5.15;;;0.73;;
22078;SDS011;11206;57.696;11.944;2022-10-31T12:10:15;14.43;;;1.42;;
22078;SDS011;11206;57.696;11.944;2022-10-31T12:15:35;5.45;;;0.80;;
22078;SDS011;11206;57.696;11.944;2022-10-31T12:43:04;7.93;;;1.02;;
22078;SDS011;11206;57.696;11.944;2022-10-31T12:48:17;8.25;;;0.85;;
22078;SDS011;11206;57.696;11.944;2022-10-31T13:04:26;5.60;;;0.80;;
22078;SDS011;11206;57.696;11.944;2022-10-31T13:06:57;4.95;;;0.98;;
22078;SDS011;11206;57.696;11.944;2022-10-31T13:09:28;8.65;;;0.85;;
22078;SDS011;11206;57.696;11.944;2022-10-31T13:11:58;3.78;;;0.65;;
22078;SDS011;11206;57.696;11.944;2022-10-31T13:14:39;4.38;;;0.60;;
22078;SDS011;11206;57.696;11.944;2022-10-31T13:17:06;6.13;;;1.05;;
22078;SDS011;11206;57.696;11.944;2022-10-31T13:19:39;5.40;;;1.02;;
22078;SDS011;11206;57.696;11.944;2022-10-31T13:22:11;10.73;;;0.75;;
22078;SDS011;11206;57.696;11.944;2022-10-31T13:24:44;12.35;;;1.40;;
22078;SDS011;11206;57.696;11.944;2022-10-31T13:27:14;9.32;;;1.52;;
22078;SDS011;11206;57.696;11.944;2022-10-31T13:35:44;7.85;;;1.80;;
22078;SDS011;11206;57.696;11.944;2022-10-31T13:40:44;10.07;;;1.63;;
22078;SDS011;11206;57.696;11.944;2022-10-31T13:43:26;5.65;;;1.48;;
22078;SDS011;11206;57.696;11.944;2022-10-31T13:45:55;3.03;;;0.90;;
22078;SDS011;11206;57.696;11.944;2022-10-31T13:50:58;4.22;;;0.95;;
22078;SDS011;11206;57.696;11.944;2022-10-31T13:53:35;5.72;;;1.10;;
22078;SDS011;11206;57.696;11.944;2022-10-31T13:56:03;11.82;;;1.55;;
22078;SDS011;11206;57.696;11.944;2022-10-31T13:58:30;5.15;;;0.90;;
22078;SDS011;11206;57.696;11.944;2022-10-31T14:01:09;9.68;;;2.25;;
22078;SDS011;11206;57.696;11.944;2022-10-31T14:03:39;6.22;;;1.48;;
22078;SDS011;11206;57.696;11.944;2022-10-31T14:06:06;6.57;;;1.38;;
22078;SDS011;11206;57.696;11.944;2022-10-31T14:08:34;5.00;;;1.10;;
22078;SDS011;11206;57.696;11.944;2022-10-31T14:11:01;5.70;;;1.02;;
22078;SDS011;11206;57.696;11.944;2022-10-31T14:13:43;6.72;;;1.58;;
22078;SDS011;11206;57.696;11.944;2022-10-31T14:16:17;5.10;;;1.63;;
22078;SDS011;11206;57.696;11.944;2022-10-31T14:18:49;12.60;;;1.80;;
22078;SDS011;11206;57.696;11.944;2022-10-31T14:23:49;5.75;;;1.17;;
22078;SDS011;11206;57.696;11.944;2022-10-31T14:28:44;6.97;;;1.50;;
22078;SDS011;11206;57.696;11.944;2022-10-31T14:34:01;6.28;;;1.80;;
22078;SDS011;11206;57.696;11.944;2022-10-31T14:39:01;4.45;;;1.05;;
22078;SDS011;11206;57.696;11.944;2022-10-31T14:44:20;4.47;;;1.30;;
22078;SDS011;11206;57.696;11.944;2022-10-31T14:52:07;4.35;;;1.75;;
22078;SDS011;11206;57.696;11.944;2022-10-31T14:54:34;6.85;;;1.42;;
22078;SDS011;11206;57.696;11.944;2022-10-31T14:57:13;6.07;;;2.00;;
22078;SDS011;11206;57.696;11.944;2022-10-31T14:59:55;4.35;;;1.73;;
22078;SDS011;11206;57.696;11.944;2022-10-31T15:02:24;12.55;;;1.63;;
22078;SDS011;11206;57.696;11.944;2022-10-31T15:04:52;4.43;;;1.50;;
22078;SDS011;11206;57.696;11.944;2022-10-31T15:07:23;8.95;;;1.80;;
22078;SDS011;11206;57.696;11.944;2022-10-31T15:10:06;5.28;;;1.70;;
22078;SDS011;11206;57.696;11.944;2022-10-31T15:12:44;4.43;;;1.63;;
22078;SDS011;11206;57.696;11.944;2022-10-31T15:15:11;6.15;;;1.45;;
22078;SDS011;11206;57.696;11.944;2022-10-31T15:17:41;6.32;;;1.50;;
22078;SDS011;11206;57.696;11.944;2022-10-31T15:20:12;11.05;;;1.90;;
22078;SDS011;11206;57.696;11.944;2022-10-31T15:22:42;6.57;;;1.58;;
22078;SDS011;11206;57.696;11.944;2022-10-31T15:25:14;8.35;;;1.30;;
22078;SDS011;11206;57.696;11.944;2022-10-31T15:27:42;4.88;;;2.20;;
22078;SDS011;11206;57.696;11.944;2022-10-31T15:30:20;4.43;;;1.70;;
22078;SDS011;11206;57.696;11.944;2022-10-31T15:32:46;4.30;;;1.75;;
22078;SDS011;11206;57.696;11.944;2022-10-31T15:35:33;5.75;;;1.88;;
22078;SDS011;11206;57.696;11.944;2022-10-31T15:37:58;8.73;;;1.67;;
22078;SDS011;11206;57.696;11.944;2022-10-31T15:40:26;9.63;;;1.98;;
22078;SDS011;11206;57.696;11.944;2022-10-31T15:42:54;3.67;;;1.65;;
22078;SDS011;11206;57.696;11.944;2022-10-31T15:45:22;5.80;;;2.00;;
22078;SDS011;11206;57.696;11.944;2022-10-31T15:47:53;5.45;;;1.80;;
22078;SDS011;11206;57.696;11.944;2022-10-31T15:50:22;18.50;;;3.30;;
22078;SDS011;11206;57.696;11.944;2022-10-31T15:52:49;13.20;;;3.35;;
22078;SDS011;11206;57.696;11.944;2022-10-31T15:55:19;10.77;;;2.95;;
22078;SDS011;11206;57.696;11.944;2022-10-31T15:57:47;9.57;;;3.10;;
22078;SDS011;11206;57.696;11.944;2022-10-31T16:03:00;9.68;;;2.40;;
22078;SDS011;11206;57.696;11.944;2022-10-31T16:05:31;9.20;;;2.92;;
22078;SDS011;11206;57.696;11.944;2022-10-31T16:07:58;11.52;;;3.45;;
22078;SDS011;11206;57.696;11.944;2022-10-31T16:10:25;10.88;;;3.42;;
22078;SDS011;11206;57.696;11.944;2022-10-31T16:12:51;7.85;;;3.13;;
22078;SDS011;11206;57.696;11.944;2022-10-31T16:15:19;10.80;;;3.40;;
22078;SDS011;11206;57.696;11.944;2022-10-31T16:17:46;14.48;;;3.58;;
22078;SDS011;11206;57.696;11.944;2022-10-31T16:20:23;13.45;;;3.17;;
22078;SDS011;11206;57.696;11.944;2022-10-31T16:22:51;14.20;;;3.72;;
22078;SDS011;11206;57.696;11.944;2022-10-31T16:25:25;14.43;;;3.42;;
22078;SDS011;11206;57.696;11.944;2022-10-31T16:27:52;14.13;;;3.33;;
22078;SDS011;11206;57.696;11.944;2022-10-31T16:32:53;8.45;;;2.83;;
22078;SDS011;11206;57.696;11.944;2022-10-31T16:35:52;13.80;;;4.15;;
22078;SDS011;11206;57.696;11.944;2022-10-31T16:38:11;10.63;;;2.60;;
22078;SDS011;11206;57.696;11.944;2022-10-31T16:40:38;16.48;;;2.83;;
22078;SDS011;11206;57.696;11.944;2022-10-31T16:43:04;13.07;;;3.67;;
22078;SDS011;11206;57.696;11.944;2022-10-31T16:45:31;7.53;;;2.72;;
22078;SDS011;11206;57.696;11.944;2022-10-31T16:48:05;16.90;;;3.42;;
22078;SDS011;11206;57.696;11.944;2022-10-31T16:50:31;9.02;;;2.80;;
22078;SDS011;11206;57.696;11.944;2022-10-31T16:52:57;20.85;;;3.20;;
22078;SDS011;11206;57.696;11.944;2022-10-31T16:55:24;9.68;;;2.75;;
22078;SDS011;11206;57.696;11.944;2022-10-31T16:57:50;8.70;;;3.03;;
22078;SDS011;11206;57.696;11.944;2022-10-31T17:00:24;12.55;;;2.80;;
22078;SDS011;11206;57.696;11.944;2022-10-31T17:05:54;8.55;;;3.05;;
22078;SDS011;11206;57.696;11.944;2022-10-31T17:08:20;16.33;;;3.63;;
22078;SDS011;11206;57.696;11.944;2022-10-31T17:10:46;9.57;;;2.63;;
22078;SDS011;11206;57.696;11.944;2022-10-31T17:13:16;13.38;;;2.53;;
22078;SDS011;11206;57.696;11.944;2022-10-31T17:15:44;8.23;;;2.67;;
22078;SDS011;11206;57.696;11.944;2022-10-31T17:23:52;6.07;;;2.55;;
22078;SDS011;11206;57.696;11.944;2022-10-31T17:26:19;8.10;;;3.08;;
22078;SDS011;11206;57.696;11.944;2022-10-31T17:28:45;10.80;;;2.95;;
22078;SDS011;11206;57.696;11.944;2022-10-31T17:31:30;18.35;;;3.33;;
22078;SDS011;11206;57.696;11.944;2022-10-31T17:34:15;10.38;;;3.28;;
22078;SDS011;11206;57.696;11.944;2022-10-31T17:36:48;8.18;;;2.80;;
22078;SDS011;11206;57.696;11.944;2022-10-31T17:39:32;11.77;;;3.17;;
22078;SDS011;11206;57.696;11.944;2022-10-31T17:41:58;13.50;;;3.17;;
22078;SDS011;11206;57.696;11.944;2022-10-31T17:44:24;8.63;;;3.35;;
22078;SDS011;11206;57.696;11.944;2022-10-31T17:46:50;12.02;;;2.78;;
22078;SDS011;11206;57.696;11.944;2022-10-31T17:49:16;7.28;;;2.08;;
22078;SDS011;11206;57.696;11.944;2022-10-31T17:51:42;7.57;;;2.50;;
22078;SDS011;11206;57.696;11.944;2022-10-31T17:54:25;10.52;;;2.72;;
22078;SDS011;11206;57.696;11.944;2022-10-31T17:56:52;10.88;;;3.03;;
22078;SDS011;11206;57.696;11.944;2022-10-31T17:59:18;9.60;;;2.97;;
22078;SDS011;11206;57.696;11.944;2022-10-31T18:01:44;11.68;;;2.88;;
22078;SDS011;11206;57.696;11.944;2022-10-31T18:04:10;13.05;;;3.17;;
22078;SDS011;11206;57.696;11.944;2022-10-31T18:06:38;7.90;;;2.50;;
22078;SDS011;11206;57.696;11.944;2022-10-31T18:09:48;10.35;;;3.45;;
22078;SDS011;11206;57.696;11.944;2022-10-31T18:12:14;8.05;;;2.75;;
22078;SDS011;11206;57.696;11.944;2022-10-31T18:14:40;15.52;;;2.95;;
22078;SDS011;11206;57.696;11.944;2022-10-31T18:17:07;10.93;;;3.13;;
22078;SDS011;11206;57.696;11.944;2022-10-31T18:19:33;14.23;;;3.08;;
22078;SDS011;11206;57.696;11.944;2022-10-31T18:24:56;9.50;;;2.92;;
22078;SDS011;11206;57.696;11.944;2022-10-31T18:27:22;8.70;;;3.15;;
22078;SDS011;11206;57.696;11.944;2022-10-31T18:29:48;6.43;;;2.60;;
22078;SDS011;11206;57.696;11.944;2022-10-31T18:32:15;9.35;;;2.67;;
22078;SDS011;11206;57.696;11.944;2022-10-31T18:34:42;15.68;;;3.25;;
22078;SDS011;11206;57.696;11.944;2022-10-31T18:37:08;7.43;;;2.60;;
22078;SDS011;11206;57.696;11.944;2022-10-31T18:39:37;11.65;;;2.78;;
22078;SDS011;11206;57.696;11.944;2022-10-31T18:45:07;7.75;;;2.90;;
22078;SDS011;11206;57.696;11.944;2022-10-31T18:47:49;12.18;;;2.72;;
22078;SDS011;11206;57.696;11.944;2022-10-31T18:50:15;7.20;;;2.45;;
22078;SDS011;11206;57.696;11.944;2022-10-31T18:52:41;8.70;;;2.65;;
22078;SDS011;11206;57.696;11.944;2022-10-31T18:58:17;7.65;;;2.03;;
22078;SDS011;11206;57.696;11.944;2022-10-31T19:00:44;14.23;;;3.70;;
22078;SDS011;11206;57.696;11.944;2022-10-31T19:03:10;11.15;;;3.13;;
22078;SDS011;11206;57.696;11.944;2022-10-31T19:05:36;19.02;;;3.83;;
22078;SDS011;11206;57.696;11.944;2022-10-31T19:10:52;8.23;;;3.13;;
22078;SDS011;11206;57.696;11.944;2022-10-31T19:14:15;10.68;;;3.22;;
22078;SDS011;11206;57.696;11.944;2022-10-31T19:16:41;9.93;;;3.25;;
22078;SDS011;11206;57.696;11.944;2022-10-31T19:19:10;9.43;;;3.00;;
22078;SDS011;11206;57.696;11.944;2022-10-31T19:21:38;17.50;;;3.05;;
22078;SDS011;11206;57.696;11.944;2022-10-31T19:27:16;13.50;;;3.13;;
22078;SDS011;11206;57.696;11.944;2022-10-31T19:29:42;8.32;;;2.72;;
22078;SDS011;11206;57.696;11.944;2022-10-31T19:32:14;12.13;;;2.88;;
22078;SDS011;11206;57.696;11.944;2022-10-31T19:34:52;14.25;;;2.83;;
22078;SDS011;11206;57.696;11.944;2022-10-31T19:37:18;10.10;;;2.47;;
22078;SDS011;11206;57.696;11.944;2022-10-31T19:39:46;14.27;;;3.40;;
22078;SDS011;11206;57.696;11.944;2022-10-31T19:42:43;10.15;;;2.50;;
22078;SDS011;11206;57.696;11.944;2022-10-31T19:45:09;9.63;;;3.42;;
22078;SDS011;11206;57.696;11.944;2022-10-31T19:47:35;10.68;;;2.72;;